Time;durP1;ratioP1;P1;durP2;ratioP2;P2;SDS_P1;SDS_P2;PMS_P1;PMS_P2;Temp;Humidity;BMP_temperature;BMP_pressure;BME280_temperature;BME280_humidity;BME280_pressure;Samples;Min_cycle;Max_cycle;Signal;HPM_P1;HPM_P2
2021/12/20 00:00:22;;;;;;;0.70;0.70;;;5.30;99.90;;;;;;5048284;28;20055;-95
2021/12/20 00:02:51;;;;;;;0.60;0.60;;;5.40;99.90;;;;;;5043218;28;20051;-94
2021/12/20 00:05:19;;;;;;;0.60;0.60;;;5.30;99.90;;;;;;5047646;28;20100;-95
2021/12/20 00:07:44;;;;;;;0.60;0.60;;;5.30;99.90;;;;;;5043799;28;20063;-93
2021/12/20 00:10:10;;;;;;;0.68;0.68;;;5.30;99.90;;;;;;5044084;28;20033;-95
2021/12/20 00:12:36;;;;;;;0.77;0.77;;;5.30;99.90;;;;;;5042764;28;20057;-95
2021/12/20 00:15:02;;;;;;;1.58;1.10;;;5.30;99.90;;;;;;5047864;28;20071;-95
2021/12/20 00:17:28;;;;;;;0.52;0.52;;;5.60;99.90;;;;;;5042222;28;20040;-95
2021/12/20 00:19:53;;;;;;;0.70;0.70;;;5.30;99.90;;;;;;5045599;28;20052;-95
2021/12/20 00:22:19;;;;;;;0.82;0.82;;;5.30;99.90;;;;;;5047189;28;20170;-95
2021/12/20 00:24:44;;;;;;;0.70;0.70;;;5.30;99.90;;;;;;5047558;28;20385;-95
2021/12/20 00:27:12;;;;;;;0.95;0.95;;;5.20;99.90;;;;;;5048041;28;20048;-95
2021/12/20 00:29:38;;;;;;;0.60;0.60;;;5.20;99.90;;;;;;5047682;28;20068;-95
2021/12/20 00:32:04;;;;;;;1.00;1.00;;;5.20;99.90;;;;;;5037348;28;20256;-95
2021/12/20 00:34:30;;;;;;;0.60;0.60;;;5.10;99.90;;;;;;5044535;28;20044;-95
2021/12/20 00:37:02;;;;;;;0.60;0.60;;;5.20;99.90;;;;;;5055778;28;20044;-95
2021/12/20 00:42:13;;;;;;;0.70;0.70;;;5.20;99.90;;;;;;5058734;28;20052;-94
2021/12/20 00:44:39;;;;;;;0.65;0.65;;;5.10;99.90;;;;;;5050585;28;20045;-95
2021/12/20 00:47:07;;;;;;;0.70;0.70;;;5.10;99.90;;;;;;5050676;28;20029;-94
2021/12/20 00:49:32;;;;;;;0.63;0.63;;;5.10;99.90;;;;;;5075760;28;20036;-95
2021/12/20 00:51:58;;;;;;;0.60;0.60;;;5.10;99.90;;;;;;5049627;28;20036;-95
2021/12/20 00:54:24;;;;;;;0.70;0.70;;;5.10;99.90;;;;;;5047743;28;20045;-95
2021/12/20 00:56:50;;;;;;;1.20;0.95;;;5.00;99.90;;;;;;5066058;28;20036;-95
2021/12/20 00:59:16;;;;;;;0.70;0.70;;;5.00;99.90;;;;;;5043813;28;20046;-95
2021/12/20 01:01:41;;;;;;;0.75;0.75;;;5.00;99.90;;;;;;5055399;28;20040;-94
2021/12/20 01:04:08;;;;;;;0.68;0.68;;;5.00;99.90;;;;;;5054267;28;20051;-93
2021/12/20 01:06:33;;;;;;;0.70;0.70;;;5.00;99.90;;;;;;5044761;28;20044;-95
2021/12/20 01:08:59;;;;;;;0.68;0.68;;;5.10;99.90;;;;;;5046369;28;20090;-95
2021/12/20 01:11:27;;;;;;;0.70;0.70;;;5.00;99.90;;;;;;5048693;28;20165;-94
2021/12/20 01:13:54;;;;;;;0.70;0.70;;;5.00;99.90;;;;;;5049416;28;20096;-96
2021/12/20 01:16:29;;;;;;;0.90;0.90;;;5.00;99.90;;;;;;5066769;28;20044;-95
2021/12/20 01:18:56;;;;;;;0.60;0.60;;;4.90;99.90;;;;;;5046120;28;20052;-95
2021/12/20 01:21:22;;;;;;;1.85;1.55;;;4.90;99.90;;;;;;5049098;28;20469;-95
2021/12/20 01:23:47;;;;;;;0.60;0.60;;;4.90;99.90;;;;;;5042736;28;20040;-95
2021/12/20 01:26:13;;;;;;;0.60;0.60;;;5.00;99.90;;;;;;5051959;28;20033;-94
2021/12/20 01:28:42;;;;;;;0.70;0.70;;;5.00;99.90;;;;;;5047714;28;20066;-95
2021/12/20 01:31:09;;;;;;;0.60;0.60;;;5.10;99.90;;;;;;5045051;28;20044;-95
2021/12/20 01:33:34;;;;;;;1.08;0.98;;;5.20;99.90;;;;;;5049395;28;20131;-95
2021/12/20 01:36:00;;;;;;;0.70;0.70;;;5.20;99.90;;;;;;5049637;28;20044;-95
2021/12/20 01:38:26;;;;;;;0.70;0.70;;;5.30;99.90;;;;;;5049851;28;20037;-94
2021/12/20 01:40:52;;;;;;;1.13;1.10;;;5.30;99.90;;;;;;5046048;28;20047;-95
2021/12/20 01:43:18;;;;;;;0.73;0.73;;;5.60;99.90;;;;;;5050708;28;20066;-94
2021/12/20 01:45:47;;;;;;;0.70;0.70;;;5.40;99.90;;;;;;5048271;28;20098;-94
2021/12/20 01:48:15;;;;;;;0.70;0.70;;;5.50;99.90;;;;;;5046062;28;20032;-95
2021/12/20 01:53:11;;;;;;;0.60;0.60;;;5.60;99.90;;;;;;5066142;28;20133;-94
2021/12/20 01:55:37;;;;;;;0.70;0.70;;;5.60;99.90;;;;;;5049847;28;20125;-94
2021/12/20 01:58:03;;;;;;;0.70;0.70;;;5.60;99.90;;;;;;5048672;28;20096;-95
2021/12/20 02:00:29;;;;;;;0.70;0.70;;;5.60;99.90;;;;;;5049039;28;20531;-95
2021/12/20 02:03:01;;;;;;;0.70;0.70;;;5.60;99.90;;;;;;5042641;28;20048;-94
2021/12/20 02:05:55;;;;;;;1.08;1.08;;;5.60;99.90;;;;;;5045085;28;20036;-94
2021/12/20 02:08:21;;;;;;;0.82;0.82;;;5.60;99.90;;;;;;5078784;28;20051;-95
2021/12/20 02:10:49;;;;;;;0.65;0.65;;;5.50;99.90;;;;;;5045254;28;20056;-95
2021/12/20 02:13:15;;;;;;;0.70;0.70;;;5.50;99.90;;;;;;5040635;28;20040;-95
2021/12/20 02:15:41;;;;;;;0.60;0.60;;;5.50;99.90;;;;;;5047492;28;20393;-94
2021/12/20 02:18:07;;;;;;;0.65;0.65;;;5.50;99.90;;;;;;5048363;28;20044;-94
2021/12/20 02:20:34;;;;;;;3.25;2.25;;;5.50;99.90;;;;;;5052066;28;20036;-93
2021/12/20 02:23:00;;;;;;;0.65;0.65;;;5.50;99.90;;;;;;5048057;28;20060;-95
2021/12/20 02:25:29;;;;;;;0.60;0.60;;;5.50;99.90;;;;;;5049340;28;20501;-95
2021/12/20 02:27:56;;;;;;;0.68;0.68;;;5.40;99.90;;;;;;5049442;28;20040;-94
2021/12/20 02:38:28;;;;;;;0.52;0.52;;;5.40;99.90;;;;;;5056232;28;20082;-94
2021/12/20 02:41:05;;;;;;;0.70;0.70;;;5.40;99.90;;;;;;5045238;28;20048;-95
2021/12/20 02:43:41;;;;;;;0.70;0.70;;;5.40;99.90;;;;;;5048425;28;20042;-94
2021/12/20 02:47:26;;;;;;;0.70;0.70;;;5.30;99.90;;;;;;5048382;28;20056;-93
2021/12/20 02:49:17;;;;;;;0.70;0.70;;;5.30;99.90;;;;;;5058249;28;20086;-93
2021/12/20 02:51:44;;;;;;;0.95;0.95;;;5.20;99.90;;;;;;5053205;28;20047;-94
2021/12/20 02:54:12;;;;;;;0.70;0.70;;;5.20;99.90;;;;;;5041118;28;20109;-93
2021/12/20 02:56:39;;;;;;;0.60;0.60;;;5.10;99.90;;;;;;5044755;28;20037;-93
2021/12/20 02:59:06;;;;;;;0.60;0.60;;;5.00;99.90;;;;;;5050214;28;20036;-94
2021/12/20 03:01:33;;;;;;;0.60;0.60;;;4.90;99.90;;;;;;5045754;28;20124;-96
2021/12/20 03:04:00;;;;;;;0.70;0.70;;;4.90;99.90;;;;;;5042836;28;20270;-95
2021/12/20 03:06:35;;;;;;;0.70;0.70;;;4.90;99.90;;;;;;5044275;28;20035;-95
2021/12/20 03:09:03;;;;;;;0.60;0.60;;;4.90;99.90;;;;;;5047760;28;20037;-94
2021/12/20 03:11:28;;;;;;;0.60;0.60;;;4.80;99.90;;;;;;5051473;28;20047;-94
2021/12/20 03:14:06;;;;;;;0.60;0.60;;;4.70;99.90;;;;;;5048199;28;20029;-96
2021/12/20 03:16:34;;;;;;;0.60;0.60;;;4.70;99.90;;;;;;5047566;28;20403;-95
2021/12/20 03:19:00;;;;;;;0.70;0.70;;;4.70;99.90;;;;;;5047313;28;20040;-94
2021/12/20 03:21:26;;;;;;;0.70;0.70;;;4.60;99.90;;;;;;5061538;28;20051;-95
2021/12/20 03:23:51;;;;;;;0.70;0.70;;;4.60;99.90;;;;;;5047905;28;20067;-95
2021/12/20 03:26:17;;;;;;;0.60;0.60;;;4.50;99.90;;;;;;5049805;28;20036;-95
2021/12/20 03:28:42;;;;;;;0.70;0.70;;;4.40;99.90;;;;;;5047694;28;20122;-95
2021/12/20 03:31:08;;;;;;;0.60;0.60;;;4.40;99.90;;;;;;5047297;28;20101;-95
2021/12/20 03:33:35;;;;;;;0.70;0.70;;;4.30;99.90;;;;;;5047554;28;20056;-93
2021/12/20 03:36:00;;;;;;;1.05;1.05;;;4.20;99.90;;;;;;5049069;28;20040;-93
2021/12/20 03:38:26;;;;;;;0.70;0.70;;;4.20;99.90;;;;;;5054455;28;20044;-95
2021/12/20 03:40:52;;;;;;;0.70;0.70;;;4.10;99.90;;;;;;5043565;28;20131;-95
2021/12/20 03:43:18;;;;;;;0.70;0.70;;;4.00;99.90;;;;;;5048277;28;20089;-94
2021/12/20 03:45:49;;;;;;;0.60;0.60;;;3.90;99.90;;;;;;5047778;28;20043;-96
2021/12/20 03:48:15;;;;;;;0.70;0.70;;;3.90;99.90;;;;;;5047998;28;20044;-95
2021/12/20 03:50:40;;;;;;;0.63;0.63;;;3.80;99.90;;;;;;5045313;28;20052;-95
2021/12/20 03:53:06;;;;;;;0.77;0.77;;;3.80;99.90;;;;;;5044580;28;20095;-96
2021/12/20 03:55:32;;;;;;;0.70;0.70;;;3.70;99.90;;;;;;5046605;28;20044;-94
2021/12/20 03:57:58;;;;;;;1.13;1.10;;;3.60;99.90;;;;;;5041930;28;20033;-94
2021/12/20 04:00:24;;;;;;;0.70;0.70;;;3.50;99.90;;;;;;5042370;28;20068;-95
2021/12/20 04:02:49;;;;;;;0.60;0.60;;;3.50;99.90;;;;;;5040808;28;20048;-96
2021/12/20 04:05:15;;;;;;;0.70;0.70;;;3.40;99.90;;;;;;5047922;28;20032;-95
2021/12/20 04:07:41;;;;;;;0.70;0.70;;;3.30;99.90;;;;;;5047339;28;20051;-95
2021/12/20 04:10:08;;;;;;;0.93;0.93;;;3.40;99.90;;;;;;5048684;28;20123;-96
2021/12/20 04:12:34;;;;;;;1.73;1.60;;;3.30;99.90;;;;;;5046953;28;20059;-94
2021/12/20 04:15:00;;;;;;;0.75;0.75;;;3.20;99.90;;;;;;5049445;28;20056;-95
2021/12/20 04:17:25;;;;;;;0.80;0.80;;;3.20;99.90;;;;;;5050693;28;20041;-94
2021/12/20 04:19:51;;;;;;;1.27;1.23;;;3.10;99.90;;;;;;5048815;28;20045;-95
2021/12/20 04:22:19;;;;;;;0.70;0.70;;;3.10;99.90;;;;;;5050850;28;20249;-95
2021/12/20 04:24:45;;;;;;;0.70;0.70;;;3.00;99.90;;;;;;5050360;28;20508;-95
2021/12/20 04:27:11;;;;;;;0.80;0.80;;;3.00;99.90;;;;;;5050890;28;20040;-95
2021/12/20 04:29:37;;;;;;;0.70;0.70;;;3.00;99.90;;;;;;5050661;28;20096;-96
2021/12/20 04:32:03;;;;;;;0.80;0.80;;;2.90;99.90;;;;;;5050112;28;20044;-95
2021/12/20 04:34:29;;;;;;;1.30;1.00;;;2.90;99.90;;;;;;5050540;28;20051;-95
2021/12/20 04:36:55;;;;;;;0.80;0.80;;;2.90;99.90;;;;;;5050369;28;20040;-95
2021/12/20 04:39:25;;;;;;;0.90;0.90;;;2.80;99.90;;;;;;5050671;28;20047;-95
2021/12/20 04:41:50;;;;;;;0.80;0.80;;;2.70;99.90;;;;;;5050237;28;20561;-96
2021/12/20 04:44:16;;;;;;;1.55;1.45;;;2.60;99.90;;;;;;5050417;28;20037;-96
2021/12/20 04:46:42;;;;;;;0.80;0.80;;;2.60;99.90;;;;;;5046028;28;20113;-96
2021/12/20 04:49:07;;;;;;;0.80;0.80;;;2.50;99.90;;;;;;5040142;28;20044;-96
2021/12/20 04:51:33;;;;;;;0.80;0.80;;;2.50;99.90;;;;;;5050118;28;20045;-95
2021/12/20 04:53:59;;;;;;;0.70;0.70;;;2.50;99.90;;;;;;5051848;28;20127;-93
2021/12/20 04:56:24;;;;;;;0.73;0.73;;;2.40;99.90;;;;;;5050468;28;20045;-95
2021/12/20 04:58:51;;;;;;;0.75;0.75;;;2.40;99.90;;;;;;5050190;28;20431;-95
2021/12/20 05:01:16;;;;;;;0.80;0.80;;;2.40;99.90;;;;;;5049676;28;20222;-95
2021/12/20 05:03:42;;;;;;;0.85;0.85;;;2.40;99.90;;;;;;5044073;28;20123;-95
2021/12/20 05:06:07;;;;;;;1.00;1.00;;;2.30;99.90;;;;;;5050456;28;20104;-94
2021/12/20 05:08:46;;;;;;;0.70;0.70;;;2.30;99.90;;;;;;5049958;28;20066;-94
2021/12/20 05:11:12;;;;;;;0.80;0.80;;;2.30;99.90;;;;;;5047972;28;20040;-94
2021/12/20 05:13:37;;;;;;;0.73;0.73;;;2.30;99.90;;;;;;5042440;28;20037;-94
2021/12/20 05:16:03;;;;;;;0.77;0.77;;;2.20;99.90;;;;;;5050207;28;20056;-95
2021/12/20 05:18:29;;;;;;;0.80;0.80;;;2.20;99.90;;;;;;5050039;28;20149;-94
2021/12/20 05:20:55;;;;;;;0.80;0.80;;;2.10;99.90;;;;;;5048713;28;20044;-94
2021/12/20 05:23:21;;;;;;;0.70;0.70;;;2.10;99.90;;;;;;5044180;28;20112;-95
2021/12/20 05:25:47;;;;;;;0.73;0.73;;;2.10;99.90;;;;;;5048086;28;20048;-96
2021/12/20 05:28:13;;;;;;;0.70;0.70;;;2.10;99.90;;;;;;5050333;28;20048;-95
2021/12/20 05:30:39;;;;;;;0.82;0.82;;;2.10;99.90;;;;;;5049116;28;20184;-95
2021/12/20 05:33:05;;;;;;;0.80;0.80;;;2.10;99.90;;;;;;5049308;28;20040;-96
2021/12/20 05:35:31;;;;;;;0.77;0.77;;;2.10;99.90;;;;;;5049946;28;20056;-93
2021/12/20 05:37:58;;;;;;;0.80;0.80;;;2.10;99.90;;;;;;5049662;28;20036;-94
2021/12/20 05:40:24;;;;;;;0.80;0.80;;;2.10;99.90;;;;;;5048714;28;20037;-95
2021/12/20 05:42:52;;;;;;;0.80;0.80;;;2.10;99.90;;;;;;5047830;28;20079;-95
2021/12/20 05:45:19;;;;;;;0.70;0.70;;;2.20;99.90;;;;;;5049229;28;20043;-94
2021/12/20 05:47:45;;;;;;;0.80;0.80;;;2.10;99.90;;;;;;5034452;28;20102;-94
2021/12/20 05:50:11;;;;;;;0.80;0.80;;;2.10;99.90;;;;;;5049687;28;20033;-95
2021/12/20 05:52:37;;;;;;;0.77;0.77;;;2.10;99.90;;;;;;5048863;28;20176;-96
2021/12/20 05:55:05;;;;;;;0.90;0.90;;;2.10;99.90;;;;;;5049692;28;20044;-95
2021/12/20 05:57:32;;;;;;;0.80;0.80;;;2.40;99.90;;;;;;5049043;28;20036;-94
2021/12/20 05:59:58;;;;;;;0.80;0.80;;;2.10;99.90;;;;;;5048894;28;20037;-95
2021/12/20 06:02:24;;;;;;;0.70;0.70;;;2.00;99.90;;;;;;5048236;28;20662;-94
2021/12/20 06:04:51;;;;;;;0.80;0.80;;;2.00;99.90;;;;;;5047713;28;20109;-93
2021/12/20 06:07:21;;;;;;;1.25;0.98;;;1.90;99.90;;;;;;5039308;28;20350;-94
2021/12/20 06:09:47;;;;;;;1.00;1.00;;;1.90;99.90;;;;;;5058744;28;20061;-94
2021/12/20 06:12:15;;;;;;;0.80;0.80;;;1.90;99.90;;;;;;5051317;28;20128;-92
2021/12/20 06:14:40;;;;;;;0.80;0.80;;;1.90;99.90;;;;;;5050605;28;20136;-93
2021/12/20 06:17:07;;;;;;;0.70;0.70;;;1.80;99.90;;;;;;5048171;28;20048;-94
2021/12/20 06:19:33;;;;;;;1.13;1.02;;;1.70;99.90;;;;;;5057105;28;20036;-94
2021/12/20 06:21:59;;;;;;;0.77;0.77;;;1.50;99.90;;;;;;5045453;28;20053;-94
2021/12/20 06:24:24;;;;;;;0.70;0.70;;;1.40;99.90;;;;;;5047625;28;20044;-94
2021/12/20 06:26:50;;;;;;;1.88;1.77;;;1.40;99.90;;;;;;5048795;28;20131;-94
2021/12/20 06:29:17;;;;;;;0.80;0.80;;;1.40;99.90;;;;;;5050764;28;20032;-94
2021/12/20 06:31:43;;;;;;;0.80;0.80;;;1.20;99.90;;;;;;5048146;28;20076;-94
2021/12/20 06:34:10;;;;;;;0.82;0.82;;;1.10;99.90;;;;;;5042113;28;20059;-95
2021/12/20 06:36:36;;;;;;;0.80;0.80;;;1.10;99.90;;;;;;5048775;28;20036;-95
2021/12/20 06:39:04;;;;;;;0.80;0.80;;;1.10;99.90;;;;;;5048489;28;20047;-94
2021/12/20 06:41:30;;;;;;;0.82;0.82;;;1.10;99.90;;;;;;5047742;28;20048;-94
2021/12/20 06:43:56;;;;;;;0.80;0.80;;;1.10;99.90;;;;;;5048331;28;20044;-94
2021/12/20 06:46:24;;;;;;;1.10;1.10;;;1.10;99.90;;;;;;5048314;28;20039;-93
2021/12/20 06:48:50;;;;;;;0.90;0.90;;;1.10;99.90;;;;;;5048332;28;20053;-94
2021/12/20 06:51:15;;;;;;;0.80;0.80;;;1.10;99.90;;;;;;5047708;28;20063;-93
2021/12/20 06:53:41;;;;;;;0.80;0.80;;;1.00;99.90;;;;;;5047729;28;20114;-92
2021/12/20 06:56:07;;;;;;;0.80;0.80;;;1.00;99.90;;;;;;5048103;28;20064;-91
2021/12/20 06:58:32;;;;;;;0.80;0.80;;;1.00;99.90;;;;;;5045816;28;20054;-93
2021/12/20 07:00:58;;;;;;;0.90;0.90;;;1.00;99.90;;;;;;5045549;28;20105;-93
2021/12/20 07:03:24;;;;;;;0.80;0.80;;;1.00;99.90;;;;;;5045691;28;20055;-92
2021/12/20 07:05:50;;;;;;;0.80;0.80;;;1.00;99.90;;;;;;5048195;28;20075;-93
2021/12/20 07:08:15;;;;;;;0.80;0.80;;;1.00;99.90;;;;;;5048904;28;20048;-92
2021/12/20 07:10:42;;;;;;;0.80;0.80;;;0.90;99.90;;;;;;5039593;28;20834;-84
2021/12/20 07:13:09;;;;;;;0.90;0.90;;;0.90;99.90;;;;;;5071252;28;20040;-86
2021/12/20 07:15:36;;;;;;;0.80;0.80;;;0.90;99.90;;;;;;5059845;28;20058;-85
2021/12/20 07:18:03;;;;;;;1.10;1.05;;;1.00;99.90;;;;;;5060669;28;20037;-86
2021/12/20 07:20:28;;;;;;;0.93;0.93;;;0.90;99.90;;;;;;5044694;28;20104;-86
2021/12/20 07:22:54;;;;;;;0.70;0.70;;;0.90;99.90;;;;;;5045228;28;20040;-87
2021/12/20 07:25:21;;;;;;;0.80;0.80;;;0.90;99.90;;;;;;5062337;28;20044;-87
2021/12/20 07:27:48;;;;;;;0.80;0.80;;;1.00;99.90;;;;;;5044977;28;20055;-88
2021/12/20 07:30:14;;;;;;;0.80;0.80;;;1.00;99.90;;;;;;5045663;28;20072;-87
2021/12/20 07:32:40;;;;;;;0.80;0.80;;;1.00;99.90;;;;;;5043221;28;20040;-87
2021/12/20 07:35:06;;;;;;;0.90;0.90;;;0.90;99.90;;;;;;5045197;28;20039;-87
2021/12/20 07:37:32;;;;;;;0.90;0.90;;;0.90;99.90;;;;;;5068493;28;20150;-86
2021/12/20 07:39:57;;;;;;;0.80;0.80;;;0.90;99.90;;;;;;5061837;28;20044;-87
2021/12/20 07:42:24;;;;;;;0.90;0.90;;;0.90;99.90;;;;;;5044059;28;20051;-86
2021/12/20 07:44:49;;;;;;;0.95;0.95;;;0.90;99.90;;;;;;5033132;28;20484;-87
2021/12/20 07:47:15;;;;;;;0.80;0.80;;;0.80;99.90;;;;;;5064381;28;20033;-86
2021/12/20 07:49:40;;;;;;;0.90;0.90;;;0.80;99.90;;;;;;5048519;28;20042;-86
2021/12/20 07:52:06;;;;;;;0.90;0.90;;;0.80;99.90;;;;;;5065105;28;20048;-85
2021/12/20 07:54:32;;;;;;;0.80;0.80;;;0.80;99.90;;;;;;5065419;28;20048;-85
2021/12/20 07:56:57;;;;;;;0.90;0.90;;;0.70;99.90;;;;;;5049430;28;20036;-85
2021/12/20 07:59:23;;;;;;;0.80;0.80;;;0.70;99.90;;;;;;5049154;28;20051;-85
2021/12/20 08:01:49;;;;;;;0.82;0.82;;;0.70;99.90;;;;;;5042644;28;20041;-87
2021/12/20 08:04:15;;;;;;;0.80;0.80;;;0.70;99.90;;;;;;5065727;28;20079;-87
2021/12/20 08:06:43;;;;;;;0.80;0.80;;;0.70;99.90;;;;;;5046311;28;20040;-89
2021/12/20 08:09:10;;;;;;;0.82;0.82;;;0.60;99.90;;;;;;5044088;28;20068;-85
2021/12/20 08:11:36;;;;;;;0.90;0.90;;;0.50;99.90;;;;;;5048530;28;20060;-86
2021/12/20 08:14:02;;;;;;;1.13;1.05;;;0.50;99.90;;;;;;5048960;28;20045;-87
2021/12/20 08:16:28;;;;;;;0.80;0.80;;;0.50;99.90;;;;;;5048879;28;20033;-85
2021/12/20 08:18:53;;;;;;;1.15;1.05;;;0.50;99.90;;;;;;5048890;28;20044;-85
2021/12/20 08:21:19;;;;;;;0.88;0.88;;;0.50;99.90;;;;;;5048522;28;20074;-84
2021/12/20 08:23:45;;;;;;;0.90;0.90;;;0.50;99.90;;;;;;5044754;28;20083;-84
2021/12/20 08:26:11;;;;;;;0.90;0.90;;;0.50;99.90;;;;;;5062999;28;20040;-84
2021/12/20 08:28:37;;;;;;;0.80;0.80;;;0.50;99.90;;;;;;5065421;28;20051;-85
2021/12/20 08:31:05;;;;;;;0.93;0.93;;;0.80;99.90;;;;;;5064477;28;20040;-85
2021/12/20 08:33:32;;;;;;;1.75;1.20;;;0.50;99.90;;;;;;5047705;28;20060;-86
2021/12/20 08:35:59;;;;;;;1.42;1.33;;;0.50;99.90;;;;;;5039993;28;20148;-85
2021/12/20 08:38:25;;;;;;;1.00;1.00;;;0.50;99.90;;;;;;5062782;28;20044;-85
2021/12/20 08:40:50;;;;;;;0.90;0.90;;;0.50;99.90;;;;;;5048007;28;20048;-85
2021/12/20 08:43:16;;;;;;;0.80;0.80;;;0.50;99.90;;;;;;5064917;28;20049;-85
2021/12/20 08:45:42;;;;;;;0.90;0.90;;;0.50;99.90;;;;;;5047859;28;20028;-85
2021/12/20 08:48:09;;;;;;;0.98;0.98;;;0.50;99.90;;;;;;5065232;28;20036;-85
2021/12/20 08:50:34;;;;;;;1.00;1.00;;;0.50;99.90;;;;;;5048663;28;20040;-85
2021/12/20 08:53:00;;;;;;;1.27;1.17;;;0.50;99.90;;;;;;5064545;28;20115;-85
2021/12/20 08:55:26;;;;;;;0.80;0.80;;;0.50;99.90;;;;;;5063851;28;20106;-84
2021/12/20 08:57:52;;;;;;;1.52;1.42;;;0.50;99.90;;;;;;5064092;28;20045;-85
2021/12/20 09:00:24;;;;;;;0.77;0.77;;;0.60;99.90;;;;;;5064356;28;20036;-84
2021/12/20 09:02:50;;;;;;;0.80;0.80;;;0.50;99.90;;;;;;5040984;28;20064;-84
2021/12/20 09:05:16;;;;;;;0.90;0.90;;;0.60;99.90;;;;;;5045266;28;20123;-84
2021/12/20 09:07:42;;;;;;;0.98;0.98;;;0.60;99.90;;;;;;5047782;28;20045;-84
2021/12/20 09:10:09;;;;;;;0.90;0.90;;;0.60;99.90;;;;;;5040232;28;20075;-83
2021/12/20 09:12:35;;;;;;;1.88;1.70;;;0.60;99.90;;;;;;5046519;28;20040;-84
2021/12/20 09:15:01;;;;;;;1.20;1.10;;;0.60;99.90;;;;;;5063862;28;20358;-84
2021/12/20 09:17:26;;;;;;;1.65;1.55;;;0.60;99.90;;;;;;5062955;28;20036;-84
2021/12/20 09:19:53;;;;;;;0.90;0.90;;;0.70;99.90;;;;;;5063605;28;20067;-85
2021/12/20 09:22:19;;;;;;;0.80;0.80;;;0.70;99.90;;;;;;5032305;28;20180;-84
2021/12/20 09:24:45;;;;;;;0.85;0.85;;;0.80;99.90;;;;;;5039648;28;20128;-84
2021/12/20 09:27:12;;;;;;;0.90;0.90;;;0.80;99.90;;;;;;5064530;28;20036;-84
2021/12/20 09:29:38;;;;;;;0.98;0.98;;;0.80;99.90;;;;;;5040058;28;20037;-85
2021/12/20 09:32:04;;;;;;;0.90;0.90;;;0.80;99.90;;;;;;5067226;28;20040;-83
2021/12/20 09:34:30;;;;;;;0.80;0.80;;;0.90;99.90;;;;;;5047355;28;20090;-84
2021/12/20 09:36:55;;;;;;;0.80;0.80;;;0.90;99.90;;;;;;5063626;28;20041;-84
2021/12/20 09:39:22;;;;;;;0.80;0.80;;;0.90;99.90;;;;;;5064515;28;20067;-84
2021/12/20 09:44:15;;;;;;;0.98;0.98;;;1.00;99.90;;;;;;5064275;28;20040;-86
2021/12/20 09:46:41;;;;;;;0.80;0.80;;;1.00;99.90;;;;;;5049310;28;20039;-84
2021/12/20 09:49:08;;;;;;;0.80;0.80;;;1.10;99.90;;;;;;5047245;28;20036;-86
2021/12/20 09:51:34;;;;;;;0.80;0.80;;;1.10;99.90;;;;;;5047068;28;20068;-86
2021/12/20 09:54:00;;;;;;;0.80;0.80;;;1.20;99.90;;;;;;5046580;28;20040;-85
2021/12/20 09:56:29;;;;;;;0.85;0.85;;;1.30;99.90;;;;;;5067893;28;20071;-84
2021/12/20 09:58:57;;;;;;;0.90;0.90;;;1.30;99.90;;;;;;5047586;28;20040;-85
2021/12/20 10:01:25;;;;;;;0.85;0.85;;;1.30;99.90;;;;;;5069550;28;20136;-87
2021/12/20 10:03:52;;;;;;;0.80;0.80;;;1.40;99.90;;;;;;5045783;28;20061;-85
2021/12/20 10:06:19;;;;;;;0.80;0.80;;;1.50;99.90;;;;;;5047867;28;20123;-88
2021/12/20 10:08:52;;;;;;;0.90;0.90;;;1.50;99.90;;;;;;5047056;28;20119;-84
2021/12/20 10:11:26;;;;;;;1.00;1.00;;;1.60;99.90;;;;;;5046851;28;20040;-83
2021/12/20 10:14:07;;;;;;;0.80;0.80;;;1.70;99.90;;;;;;5063346;28;20064;-83
2021/12/20 10:16:34;;;;;;;0.88;0.88;;;1.80;99.90;;;;;;5062905;28;20059;-83
2021/12/20 10:19:00;;;;;;;0.98;0.98;;;1.80;99.90;;;;;;5063495;28;20104;-83
2021/12/20 10:21:57;;;;;;;0.90;0.90;;;1.90;99.90;;;;;;5081532;28;20083;-84
2021/12/20 10:24:38;;;;;;;0.80;0.80;;;1.90;99.90;;;;;;5031642;28;20091;-83
2021/12/20 10:27:04;;;;;;;0.80;0.80;;;2.00;99.90;;;;;;5062772;28;20140;-82
2021/12/20 10:29:30;;;;;;;0.80;0.80;;;2.00;99.90;;;;;;5062347;28;20119;-83
2021/12/20 10:31:56;;;;;;;0.80;0.80;;;2.20;99.90;;;;;;5061388;28;20051;-83
2021/12/20 10:34:33;;;;;;;0.90;0.90;;;2.20;99.90;;;;;;5062679;28;20086;-84
2021/12/20 10:37:01;;;;;;;1.13;1.10;;;2.40;99.90;;;;;;5069255;28;20040;-84
2021/12/20 10:40:01;;;;;;;1.73;1.63;;;2.50;99.90;;;;;;5062678;28;20087;-85
2021/12/20 10:42:29;;;;;;;0.80;0.80;;;2.60;99.90;;;;;;5030497;28;20064;-84
2021/12/20 10:45:10;;;;;;;0.80;0.80;;;2.70;99.90;;;;;;5045777;28;20515;-85
2021/12/20 10:47:36;;;;;;;1.23;1.23;;;2.80;99.90;;;;;;5068311;28;20040;-84
2021/12/20 10:50:20;;;;;;;0.80;0.80;;;3.00;99.90;;;;;;5046176;28;20055;-86
2021/12/20 10:52:47;;;;;;;1.25;1.13;;;3.10;99.90;;;;;;5055929;28;20067;-86
2021/12/20 10:55:12;;;;;;;0.80;0.80;;;3.20;99.90;;;;;;5063208;28;20044;-86
2021/12/20 10:57:38;;;;;;;0.80;0.80;;;3.30;99.90;;;;;;5062467;28;20113;-85
2021/12/20 11:00:15;;;;;;;0.70;0.70;;;3.30;99.90;;;;;;5063370;28;20488;-84
2021/12/20 11:03:23;;;;;;;0.80;0.80;;;3.30;99.90;;;;;;5059776;28;20050;-84
2021/12/20 11:06:13;;;;;;;0.90;0.90;;;3.40;99.90;;;;;;5044699;28;20101;-83
2021/12/20 11:11:25;;;;;;;0.90;0.90;;;3.50;99.90;;;;;;5061917;28;20638;-84
2021/12/20 11:13:50;;;;;;;0.80;0.80;;;3.60;99.90;;;;;;5058245;28;20049;-84
2021/12/20 11:16:41;;;;;;;0.70;0.70;;;3.60;99.90;;;;;;5044169;28;20041;-85
2021/12/20 11:19:07;;;;;;;0.80;0.80;;;3.70;99.90;;;;;;5077708;28;20032;-82
2021/12/20 11:21:48;;;;;;;3.03;1.70;;;3.70;99.90;;;;;;5063422;28;20102;-83
2021/12/20 11:24:17;;;;;;;0.80;0.80;;;3.80;99.90;;;;;;5065046;28;20145;-82
2021/12/20 11:26:43;;;;;;;0.73;0.73;;;3.90;99.90;;;;;;5046789;28;20061;-83
2021/12/20 11:29:09;;;;;;;0.80;0.80;;;3.90;99.90;;;;;;5066260;28;20059;-83
2021/12/20 11:31:37;;;;;;;0.75;0.75;;;3.90;99.90;;;;;;5051967;28;20101;-83
2021/12/20 11:34:03;;;;;;;0.75;0.75;;;4.40;99.90;;;;;;5082048;28;20071;-84
2021/12/20 11:36:29;;;;;;;0.70;0.70;;;4.10;99.90;;;;;;5082240;28;20040;-84
2021/12/20 11:38:58;;;;;;;1.00;1.00;;;4.10;99.90;;;;;;5060799;28;20071;-83
2021/12/20 11:41:25;;;;;;;0.70;0.70;;;4.20;99.90;;;;;;5060604;28;20176;-84
2021/12/20 11:43:52;;;;;;;0.80;0.80;;;4.20;99.90;;;;;;5061256;28;20145;-84
2021/12/20 11:46:21;;;;;;;0.73;0.73;;;4.20;99.90;;;;;;5038091;28;20098;-84
2021/12/20 11:48:47;;;;;;;0.85;0.85;;;4.30;99.90;;;;;;5028238;28;20059;-84
2021/12/20 11:51:12;;;;;;;0.80;0.80;;;4.20;99.90;;;;;;5063918;28;20072;-84
2021/12/20 11:53:40;;;;;;;0.70;0.70;;;4.30;99.90;;;;;;5064499;28;20045;-83
2021/12/20 11:56:07;;;;;;;0.75;0.75;;;4.30;99.90;;;;;;5047960;28;20074;-84
2021/12/20 11:58:34;;;;;;;0.70;0.70;;;4.30;99.90;;;;;;5080320;28;20049;-84
2021/12/20 12:01:02;;;;;;;0.80;0.80;;;4.30;99.90;;;;;;5043417;28;20075;-84
2021/12/20 12:03:33;;;;;;;0.88;0.85;;;4.30;99.90;;;;;;5060880;28;20132;-84
2021/12/20 12:06:04;;;;;;;0.88;0.85;;;4.30;99.90;;;;;;5068332;28;20461;-83
2021/12/20 12:09:02;;;;;;;0.80;0.80;;;4.30;99.90;;;;;;5062355;28;20055;-84
2021/12/20 12:11:31;;;;;;;1.63;1.52;;;4.30;99.90;;;;;;5042689;28;20056;-84
2021/12/20 12:16:50;;;;;;;0.90;0.90;;;4.30;99.90;;;;;;5061341;28;20104;-85
2021/12/20 12:19:39;;;;;;;0.60;0.60;;;4.30;99.90;;;;;;5046836;28;20086;-86
2021/12/20 12:22:37;;;;;;;0.70;0.70;;;4.40;99.90;;;;;;5062489;28;20480;-85
2021/12/20 12:25:07;;;;;;;0.80;0.80;;;4.40;99.90;;;;;;5058867;28;20066;-84
2021/12/20 12:27:35;;;;;;;0.70;0.70;;;4.40;99.90;;;;;;5062288;28;20052;-85
2021/12/20 12:30:15;;;;;;;0.65;0.65;;;4.40;99.90;;;;;;5045030;28;20127;-84
2021/12/20 12:33:09;;;;;;;0.70;0.70;;;4.40;99.90;;;;;;5062513;28;20047;-85
2021/12/20 12:35:39;;;;;;;0.80;0.80;;;4.40;99.90;;;;;;5064685;28;20051;-85
2021/12/20 12:38:27;;;;;;;0.90;0.90;;;4.40;99.90;;;;;;5039842;28;20051;-85
2021/12/20 12:41:04;;;;;;;0.70;0.70;;;4.40;99.90;;;;;;5063316;28;20116;-84
2021/12/20 12:43:47;;;;;;;0.70;0.70;;;4.40;99.90;;;;;;5063558;28;20040;-84
2021/12/20 12:46:13;;;;;;;0.80;0.80;;;4.40;99.90;;;;;;5063912;28;20040;-84
2021/12/20 12:48:46;;;;;;;0.70;0.70;;;4.40;99.90;;;;;;5051201;28;20049;-84
2021/12/20 12:51:20;;;;;;;0.70;0.70;;;4.40;99.90;;;;;;5064867;28;20040;-84
2021/12/20 12:53:54;;;;;;;0.70;0.70;;;4.40;99.90;;;;;;5048133;28;20059;-84
2021/12/20 12:56:23;;;;;;;0.70;0.70;;;4.40;99.90;;;;;;5065691;28;20074;-85
2021/12/20 12:59:14;;;;;;;0.68;0.68;;;4.50;99.90;;;;;;5049946;28;20079;-87
2021/12/20 13:01:56;;;;;;;0.70;0.70;;;4.50;99.90;;;;;;5059158;28;20040;-87
2021/12/20 13:04:45;;;;;;;0.82;0.82;;;4.50;99.90;;;;;;5063563;28;20504;-85
2021/12/20 13:07:15;;;;;;;0.73;0.73;;;4.50;99.90;;;;;;5053911;28;20036;-86
2021/12/20 13:09:44;;;;;;;0.70;0.70;;;4.50;99.90;;;;;;5046043;28;20041;-86
2021/12/20 13:12:21;;;;;;;0.80;0.80;;;4.50;99.90;;;;;;5065490;28;20054;-86
2021/12/20 13:15:06;;;;;;;2.40;1.73;;;4.50;99.90;;;;;;5050946;28;20044;-85
2021/12/20 13:17:38;;;;;;;0.70;0.70;;;4.50;99.90;;;;;;5057291;28;20040;-84
2021/12/20 13:20:31;;;;;;;0.80;0.80;;;4.50;99.90;;;;;;5064730;28;20052;-84
2021/12/20 13:23:04;;;;;;;0.70;0.70;;;4.50;99.90;;;;;;5061274;28;20093;-87
2021/12/20 13:25:42;;;;;;;0.80;0.80;;;4.50;99.90;;;;;;5063963;28;20044;-87